Etusivu
METAR-TAF:

METAR-TAF

Lentoasemat :

Marshall, Missouri, Yhdysvallat

Leveyspiiri: 39-05-44N, Pituuspiiri: 093-12-10W, korkeus merenpinnasta: 237 m

Tämänhetkinen sää

Tämä raportti tehtiin 25 minuuttia sitten, kello 09.15 UTC
Tuuli 5 kn lännestä/luoteesta
Lämpötila 15°C
Kosteus 94%
Ilmanpaine 1017 hPa
Näkyvyys: 16.1 km
selkeää

METAR: KMHL 290915Z AUTO 30005KT 10SM CLR 15/14 A3004 RMK AO2 PWINO

Aika: 04:40 (09:40 UTC)


TAF: puuttuu

Säähavainnot ja -ennusteet yli 4000 lentoasemalta (METAR- ja TAF-raportit).

Käytössä olevat sääasemat on merkitty karttaan keltaisilla ja punaisilla pisteillä.

Aseta hiiri pisteen päälle nähdäksesi sääaseman nimen.

Klikkaa sitten nähdäksesi säähavainnot ja -ennusteet.

Kartan vaihtaminen: klikkaa mustalla rastilla varustettuja vihreitä pisteitä, niin voit zoomata sisään; viivalla varustettua vihreää pistettä, niin voit zoomata ulos tai vihreitä nuolia, niin pääset viereisille kartoille.


METAR-TAF: